Afipsky Heliport

URKF · Krasnodarskiy, Rússia

História da METAR URKF · Afipsky Heliport

Abaixo você vê METARs dos últimos dias. Selecione um ano para navegar pelos METARs mais antigos, a partir do ano 2007.

15 de julho de 2024

Hora Código Clima Temp. Visibilidade Tecto Vento METAR/SPECI
04:30
V
18 °C 10 km+ - 050° 050° 9 kt METAR URKK 150130Z 05005MPS CAVOK 18/04 Q1008 R05R/CLRD70 NOSIG RMK QFE753
04:00
V
18 °C 10 km+ - 040° 040° 7 kt METAR URKK 150100Z 04004MPS CAVOK 18/04 Q1008 R05R/CLRD70 NOSIG RMK QFE753
03:30
V
19 °C 10 km+ - 040° 040° 9 kt METAR URKK 150030Z 04005MPS CAVOK 19/04 Q1008 R05R/CLRD70 NOSIG RMK QFE753
03:00
V
21 °C 10 km+ - 060° 060° 7 kt METAR URKK 150000Z 06004MPS CAVOK 21/04 Q1008 R05R/CLRD70 NOSIG RMK QFE753
02:30
V
21 °C 10 km+ - 060° 060° 7 kt METAR URKK 142330Z 06004MPS CAVOK 21/03 Q1008 R05R/CLRD70 NOSIG RMK QFE753
02:00
V
20 °C 10 km+ - 060° 060° 7 kt METAR URKK 142300Z 06004MPS CAVOK 20/04 Q1008 R05R/CLRD70 NOSIG RMK QFE753
01:30
V
22 °C 10 km+ - 050° 050° 7 kt METAR URKK 142230Z 05004MPS CAVOK 22/03 Q1008 R05R/CLRD70 NOSIG RMK QFE753
01:00
V
22 °C 10 km+ - 050° 050° 11 kt METAR URKK 142200Z 05006MPS CAVOK 22/03 Q1008 R05R/CLRD70 NOSIG RMK QFE753
00:30
V
22 °C 10 km+ - 040° 040° 7 kt METAR URKK 142130Z 04004MPS CAVOK 22/03 Q1008 R05R/CLRD70 NOSIG RMK QFE753
00:00
V
25 °C 10 km+ - 050° 050° 9 kt METAR URKK 142100Z 05005MPS 030V090 CAVOK 25/03 Q1008 R05R/CLRD70 NOSIG RMK QFE753

14 de julho de 2024

Hora Código Clima Temp. Visibilidade Tecto Vento METAR/SPECI
23:30
V
26 °C 10 km+ - 060° 060° 9 kt METAR URKK 142030Z 06005MPS CAVOK 26/03 Q1008 R05R/CLRD70 NOSIG RMK QFE753
23:00
V
27 °C 10 km+ - 060° 060° 9 kt METAR URKK 142000Z 06005MPS CAVOK 27/03 Q1008 R05R/CLRD70 NOSIG RMK QFE753
22:30
V
28 °C 10 km+ - 060° 060° 11 kt METAR URKK 141930Z 06006MPS CAVOK 28/02 Q1008 R05R/CLRD70 NOSIG RMK QFE753
22:00
V
28 °C 10 km+ - 060° 060° 9 kt METAR URKK 141900Z 06005MPS CAVOK 28/03 Q1008 R05R/CLRD70 NOSIG RMK QFE753
21:30
V
27 °C 10 km+ - 060° 060° 11 kt METAR URKK 141830Z 06006MPS CAVOK 27/03 Q1008 R05R/CLRD70 NOSIG RMK QFE753
21:00
V
27 °C 10 km+ - 050° 050° 9 kt METAR URKK 141800Z 05005MPS CAVOK 27/05 Q1008 R05R/CLRD70 NOSIG RMK QFE753
20:30
V
26 °C 10 km+ - 040° 040° 9 kt METAR URKK 141730Z 04005MPS CAVOK 26/06 Q1008 R05R/CLRD70 NOSIG RMK QFE753
20:00
V
30 °C 10 km+ - 060° 060° 11 kt METAR URKK 141700Z 06006MPS CAVOK 30/05 Q1007 R05R/CLRD70 NOSIG RMK QFE752
19:30
V
32 °C 10 km+ - 060° 060° 11 kt METAR URKK 141630Z 06006MPS CAVOK 32/05 Q1007 R05R/CLRD70 NOSIG RMK QFE752
19:00
V
33 °C 10 km+ - 060° 060° 13 kt METAR URKK 141600Z 06007MPS CAVOK 33/05 Q1007 R05R/CLRD70 NOSIG RMK QFE752
18:30
V
33 °C 10 km+ - 060° 060° 13 kt METAR URKK 141530Z 06007MPS CAVOK 33/05 Q1007 R05R/CLRD70 NOSIG RMK QFE752
18:00
V
34 °C 10 km+ - 060° 060° 13 kt METAR URKK 141500Z 06007MPS 030V090 CAVOK 34/05 Q1007 R05R/CLRD70 NOSIG RMK QFE752
17:30
V
34 °C 10 km+ - 070° 070° 13 kt METAR URKK 141430Z 07007MPS CAVOK 34/04 Q1007 R05R/CLRD70 NOSIG RMK QFE752
17:00
V
34 °C 10 km+ - 070° 070° 15 kt METAR URKK 141400Z 07008MPS CAVOK 34/05 Q1007 R05R/CLRD70 NOSIG RMK QFE752
16:30
V
34 °C 10 km+ - 070° 070° 15 kt METAR URKK 141330Z 07008MPS CAVOK 34/04 Q1007 R05R/CLRD70 NOSIG RMK QFE752
16:00
V
34 °C 10 km+ - 060° 060° 15 kt METAR URKK 141300Z 06008MPS CAVOK 34/04 Q1007 R05R/CLRD70 NOSIG RMK QFE752
15:30
V
35 °C 10 km+ - 060° 060° 15 kt METAR URKK 141230Z 06008MPS CAVOK 35/04 Q1007 R05R/CLRD70 NOSIG RMK QFE752
15:00
V
34 °C 10 km+ - 060° 060° 17 kt METAR URKK 141200Z 06009MPS CAVOK 34/04 Q1007 R05R/CLRD70 NOSIG RMK QFE752
14:30
V
35 °C 10 km+ - 060° 060° 15 - 25 kt METAR URKK 141130Z 06008G13MPS 040V100 CAVOK 35/05 Q1008 R05R/CLRD70 NOSIG RMK QFE753
14:00
V
34 °C 10 km+ - 060° 060° 17 kt METAR URKK 141100Z 06009MPS CAVOK 34/05 Q1008 R05R/CLRD70 NOSIG RMK QFE753
13:53
V
34 °C 10 km+ - 060° 060° 17 kt SPECI URKK 141053Z 06009MPS CAVOK 34/04 Q1008 R05R/CLRD70 NOSIG RMK QFE753/1004
13:30
V
34 °C 10 km+ - 060° 060° 17 - 27 kt METAR URKK 141030Z 06009G14MPS CAVOK 34/04 Q1008 R05R/CLRD70 NOSIG RMK QFE753
13:00
V
34 °C 10 km+ - 060° 060° 19 kt METAR URKK 141000Z 06010MPS CAVOK 34/04 Q1008 R05R/CLRD70 NOSIG RMK QFE753
12:36
V
34 °C 10 km+ - 070° 070° 17 - 27 kt SPECI URKK 140936Z 07009G14MPS CAVOK 34/05 Q1009 R05R/CLRD70 NOSIG RMK QFE753/1005
12:30
V
33 °C 10 km+ - 070° 070° 17 kt METAR URKK 140930Z 07009MPS CAVOK 33/05 Q1008 R05R/CLRD70 NOSIG RMK QFE753
12:15
V
33 °C 10 km+ - 070° 070° 17 - 27 kt SPECI URKK 140915Z 07009G14MPS CAVOK 33/05 Q1008 R05R/CLRD70 NOSIG RMK QFE753/1004
12:00
V
33 °C 10 km+ - 070° 070° 15 kt METAR URKK 140900Z 07008MPS CAVOK 33/05 Q1009 R05R/CLRD70 NOSIG RMK QFE753
11:30
V
33 °C 10 km+ - 080° 080° 17 - 27 kt METAR URKK 140830Z 08009G14MPS CAVOK 33/05 Q1009 R05R/CLRD70 NOSIG RMK QFE754
11:26
V
32 °C 10 km+ - 070° 070° 17 - 27 kt SPECI URKK 140826Z 07009G14MPS CAVOK 32/05 Q1009 R05R/CLRD70 NOSIG RMK QFE754/1005
11:00
V
32 °C 10 km+ - 070° 070° 17 kt METAR URKK 140800Z 07009MPS CAVOK 32/06 Q1009 R05R/CLRD70 NOSIG RMK QFE753
10:37
V
32 °C 10 km+ - 080° 080° 15 - 25 kt SPECI URKK 140737Z 08008G13MPS CAVOK 32/06 Q1009 R05R/CLRD70 NOSIG RMK QFE754/1005
10:00
V
30 °C 10 km+ - 070° 070° 13 kt METAR URKK 140700Z 07007MPS CAVOK 30/07 Q1009 R05R/CLRD70 NOSIG RMK QFE754
09:30
V
29 °C 10 km+ - 070° 070° 11 kt METAR URKK 140630Z 07006MPS CAVOK 29/08 Q1009 R05R/CLRD70 NOSIG RMK QFE754
09:00
V
28 °C 10 km+ - 070° 070° 11 kt METAR URKK 140600Z 07006MPS CAVOK 28/07 Q1009 R05R/CLRD70 NOSIG RMK QFE754
08:30
V
27 °C 10 km+ - 070° 070° 13 kt METAR URKK 140530Z 07007MPS CAVOK 27/06 Q1009 R05R/CLRD70 NOSIG RMK QFE754
08:00
V
26 °C 10 km+ - 060° 060° 11 kt METAR URKK 140500Z 06006MPS CAVOK 26/07 Q1009 R05R/CLRD70 NOSIG RMK QFE754
07:30
V
25 °C 10 km+ - 060° 060° 11 kt METAR URKK 140430Z 06006MPS CAVOK 25/06 Q1009 R05R/CLRD70 NOSIG RMK QFE754
07:00
V
23 °C 10 km+ - 050° 050° 9 kt METAR URKK 140400Z 05005MPS CAVOK 23/06 Q1009 R23L/CLRD70 NOSIG RMK QFE754
06:30
V
22 °C 10 km+ - 050° 050° 5 kt METAR URKK 140330Z 05003MPS CAVOK 22/06 Q1009 R23L/CLRD70 NOSIG RMK QFE754
06:00
V
21 °C 10 km+ - 040° 040° 9 kt METAR URKK 140300Z 04005MPS CAVOK 21/06 Q1009 R23L/CLRD70 NOSIG RMK QFE754
05:30
V
22 °C 10 km+ - 060° 060° 9 kt METAR URKK 140230Z 06005MPS CAVOK 22/06 Q1009 R23L/CLRD70 NOSIG RMK QFE753
05:00
V
23 °C 10 km+ - 060° 060° 9 kt METAR URKK 140200Z 06005MPS CAVOK 23/05 Q1009 R23L/CLRD70 NOSIG RMK QFE753
04:30
V
23 °C 10 km+ - 060° 060° 9 kt METAR URKK 140130Z 06005MPS CAVOK 23/05 Q1009 R23L/CLRD70 NOSIG RMK QFE753
04:00
V
23 °C 10 km+ - 060° 060° 9 kt METAR URKK 140100Z 06005MPS CAVOK 23/05 Q1009 R23L/CLRD70 NOSIG RMK QFE753
03:30
V
22 °C 10 km+ - 060° 060° 9 kt METAR URKK 140030Z 06005MPS CAVOK 22/04 Q1009 R23L/CLRD70 NOSIG RMK QFE753
03:00
V
20 °C 10 km+ - 050° 050° 7 kt METAR URKK 140000Z 05004MPS CAVOK 20/04 Q1009 R23L/CLRD70 NOSIG RMK QFE753
02:30
V
20 °C 10 km+ - 050° 050° 7 kt METAR URKK 132330Z 05004MPS CAVOK 20/04 Q1009 R23L/CLRD70 NOSIG RMK QFE753
02:00
V
22 °C 10 km+ - 050° 050° 9 kt METAR URKK 132300Z 05005MPS CAVOK 22/04 Q1009 R23L/CLRD70 NOSIG RMK QFE753
01:30
V
24 °C 10 km+ - 060° 060° 9 kt METAR URKK 132230Z 06005MPS CAVOK 24/04 Q1009 R23L/CLRD70 NOSIG RMK QFE753
01:00
V
24 °C 10 km+ - 060° 060° 9 kt METAR URKK 132200Z 06005MPS CAVOK 24/04 Q1009 R23L/CLRD70 NOSIG RMK QFE753
00:30
V
24 °C 10 km+ - 050° 050° 9 kt METAR URKK 132130Z 05005MPS CAVOK 24/05 Q1009 R23L/CLRD70 NOSIG RMK QFE753
00:00
V
25 °C 10 km+ - 060° 060° 11 kt METAR URKK 132100Z 06006MPS CAVOK 25/05 Q1009 R23L/CLRD70 NOSIG RMK QFE753

13 de julho de 2024

Hora Código Clima Temp. Visibilidade Tecto Vento METAR/SPECI
23:30
V
25 °C 10 km+ - 050° 050° 11 kt METAR URKK 132030Z 05006MPS CAVOK 25/05 Q1008 R23L/CLRD70 NOSIG RMK QFE753
23:00
V
25 °C 10 km+ - 040° 040° 11 kt METAR URKK 132000Z 04006MPS CAVOK 25/05 Q1008 R23L/CLRD70 NOSIG RMK QFE753
22:30
V
25 °C 10 km+ - 050° 050° 11 kt METAR URKK 131930Z 05006MPS CAVOK 25/05 Q1008 R05R/CLRD70 NOSIG RMK QFE753
22:00
V
26 °C 10 km+ - 050° 050° 11 kt METAR URKK 131900Z 05006MPS CAVOK 26/05 Q1008 R05R/CLRD70 NOSIG RMK QFE753
21:30
V
27 °C 10 km+ - 050° 050° 11 kt METAR URKK 131830Z 05006MPS CAVOK 27/05 Q1008 R05R/CLRD70 NOSIG RMK QFE753
21:00
V
26 °C 10 km+ - 050° 050° 7 kt METAR URKK 131800Z 05004MPS CAVOK 26/06 Q1008 R05R/CLRD70 NOSIG RMK QFE753
20:30
V
26 °C 10 km+ - 050° 050° 7 kt METAR URKK 131730Z 05004MPS CAVOK 26/06 Q1008 R05R/CLRD70 NOSIG RMK QFE753
20:00
V
28 °C 10 km+ - 050° 050° 7 kt METAR URKK 131700Z 05004MPS CAVOK 28/07 Q1008 R05R/CLRD70 NOSIG RMK QFE753
19:30
V
30 °C 10 km+ - 060° 060° 11 kt METAR URKK 131630Z 06006MPS CAVOK 30/07 Q1008 R05R/CLRD70 NOSIG RMK QFE753
19:00
V
32 °C 10 km+ - 060° 060° 11 kt METAR URKK 131600Z 06006MPS CAVOK 32/06 Q1008 R05R/CLRD70 NOSIG RMK QFE753
18:30
V
32 °C 10 km+ - 070° 070° 13 kt METAR URKK 131530Z 07007MPS CAVOK 32/05 Q1008 R05R/CLRD70 NOSIG RMK QFE753
18:00
V
33 °C 10 km+ - 060° 060° 13 kt METAR URKK 131500Z 06007MPS CAVOK 33/05 Q1008 R05R/CLRD70 NOSIG RMK QFE753
17:30
V
33 °C 10 km+ - 060° 060° 17 kt METAR URKK 131430Z 06009MPS CAVOK 33/04 Q1008 R05R/CLRD70 NOSIG RMK QFE753
17:00
V
34 °C 10 km+ - 070° 070° 13 kt METAR URKK 131400Z 07007MPS CAVOK 34/04 Q1008 R05R/CLRD70 NOSIG RMK QFE753
16:30
V
34 °C 10 km+ - 090° 090° 13 kt METAR URKK 131330Z 09007MPS CAVOK 34/03 Q1008 R05R/CLRD70 NOSIG RMK QFE753
16:00
V
34 °C 10 km+ - 070° 070° 13 kt METAR URKK 131300Z 07007MPS CAVOK 34/05 Q1008 R05R/CLRD70 NOSIG RMK QFE753
15:30
V
34 °C 10 km+ - 070° 070° 15 kt METAR URKK 131230Z 07008MPS CAVOK 34/05 Q1008 R05R/CLRD70 NOSIG RMK QFE753
15:00
V
34 °C 10 km+ - 060° 060° 17 kt METAR URKK 131200Z 06009MPS 040V110 CAVOK 34/05 Q1008 R05R/CLRD70 NOSIG RMK QFE753
14:49
V
34 °C 10 km+ - 060° 060° 15 - 25 kt SPECI URKK 131149Z 06008G13MPS CAVOK 34/07 Q1008 R05R/CLRD70 NOSIG RMK QFE753/1004
14:30
V
34 °C 10 km+ - 070° 070° 15 kt METAR URKK 131130Z 07008MPS CAVOK 34/05 Q1008 R05R/CLRD70 NOSIG RMK QFE753
14:00
V
34 °C 10 km+ - 060° 060° 17 kt METAR URKK 131100Z 06009MPS CAVOK 34/06 Q1008 R05R/CLRD70 NOSIG RMK QFE753
13:30
V
34 °C 10 km+ - 070° 070° 17 kt METAR URKK 131030Z 07009MPS 040V100 CAVOK 34/07 Q1008 R05R/CLRD70 NOSIG RMK QFE753
13:20
V
33 °C 10 km+ - 070° 070° 17 - 27 kt SPECI URKK 131020Z 07009G14MPS CAVOK 33/06 Q1009 R05R/CLRD70 NOSIG RMK QFE753/1005
13:00
V
34 °C 10 km+ - 070° 070° 15 kt METAR URKK 131000Z 07008MPS CAVOK 34/07 Q1009 R05R/CLRD70 NOSIG RMK QFE753
12:30
V
33 °C 10 km+ - 070° 070° 19 kt METAR URKK 130930Z 07010MPS CAVOK 33/07 Q1009 R05R/CLRD70 NOSIG RMK QFE754
12:20
V
33 °C 10 km+ - 070° 070° 17 - 27 kt SPECI URKK 130920Z 07009G14MPS CAVOK 33/07 Q1009 R05R/CLRD70 NOSIG RMK QFE753/1005
12:00
V
33 °C 10 km+ - 070° 070° 17 kt METAR URKK 130900Z 07009MPS CAVOK 33/07 Q1009 R05R/CLRD70 NOSIG RMK QFE754
11:30
V
32 °C 10 km+ - 060° 060° 17 kt METAR URKK 130830Z 06009MPS CAVOK 32/08 Q1009 R05R/CLRD70 NOSIG RMK QFE754
11:24
V
32 °C 10 km+ - 070° 070° 17 kt SPECI URKK 130824Z 07009MPS CAVOK 32/09 Q1009 R05R/CLRD70 NOSIG RMK QFE754/1005
11:04
V
32 °C 10 km+ - 070° 070° 17 - 27 kt SPECI URKK 130804Z 07009G14MPS 040V100 CAVOK 32/08 Q1009 R05R/CLRD70 NOSIG RMK QFE754/1005
10:30
V
31 °C 10 km+ - 070° 070° 19 kt METAR URKK 130730Z 07010MPS CAVOK 31/08 Q1009 R05R/CLRD70 NOSIG RMK QFE754
10:03
V
31 °C 10 km+ - 070° 070° 15 - 25 kt SPECI URKK 130703Z 07008G13MPS CAVOK 31/08 Q1009 R05R/CLRD70 NOSIG RMK QFE754/1005
09:40
V
30 °C 10 km+ - 070° 070° 15 - 25 kt SPECI URKK 130640Z 07008G13MPS CAVOK 30/08 Q1009 R05R/CLRD70 NOSIG RMK QFE754/1005
09:00
V
28 °C 10 km+ - 070° 070° 15 kt METAR URKK 130600Z 07008MPS CAVOK 28/08 Q1009 R05R/CLRD70 NOSIG RMK QFE754
08:32
V
27 °C 10 km+ - 070° 070° 15 - 25 kt SPECI URKK 130532Z 07008G13MPS CAVOK 27/07 Q1009 R05R/CLRD70 NOSIG RMK QFE754/1005
08:00
V
27 °C 10 km+ - 070° 070° 15 kt METAR URKK 130500Z 07008MPS CAVOK 27/07 Q1009 R05R/CLRD70 NOSIG RMK QFE754
07:30
V
26 °C 10 km+ - 070° 070° 13 kt METAR URKK 130430Z 07007MPS CAVOK 26/07 Q1009 R05R/CLRD70 NOSIG RMK QFE753
07:00
V
26 °C 10 km+ - 070° 070° 13 kt METAR URKK 130400Z 07007MPS CAVOK 26/07 Q1009 R05R/CLRD70 NOSIG RMK QFE753
06:49
V
25 °C 10 km+ - 070° 070° 15 - 25 kt SPECI URKK 130349Z 07008G13MPS CAVOK 25/06 Q1009 R05R/CLRD70 NOSIG RMK QFE753/1005
06:30
V
25 °C 10 km+ - 070° 070° 11 kt METAR URKK 130330Z 07006MPS CAVOK 25/06 Q1009 R05R/CLRD70 NOSIG RMK QFE753
06:00
V
25 °C 10 km+ - 070° 070° 13 kt METAR URKK 130300Z 07007MPS CAVOK 25/06 Q1009 R05R/CLRD70 NOSIG RMK QFE753
05:30
V
24 °C 10 km+ - 060° 060° 13 kt METAR URKK 130230Z 06007MPS CAVOK 24/06 Q1009 R05R/CLRD70 NOSIG RMK QFE753
05:00
V
24 °C 10 km+ - 060° 060° 11 kt METAR URKK 130200Z 06006MPS CAVOK 24/06 Q1009 R05R/CLRD70 NOSIG RMK QFE753
04:30
V
24 °C 10 km+ - 060° 060° 11 kt METAR URKK 130130Z 06006MPS CAVOK 24/07 Q1009 R05R/CLRD70 NOSIG RMK QFE753
04:00
V
25 °C 10 km+ - 060° 060° 13 kt METAR URKK 130100Z 06007MPS CAVOK 25/07 Q1009 R05R/CLRD70 NOSIG RMK QFE753
03:30
V
25 °C 10 km+ - 060° 060° 11 kt METAR URKK 130030Z 06006MPS CAVOK 25/06 Q1009 R05R/CLRD70 NOSIG RMK QFE753
03:00
V
25 °C 10 km+ - 060° 060° 11 kt METAR URKK 130000Z 06006MPS CAVOK 25/06 Q1009 R05R/CLRD70 NOSIG RMK QFE753
02:30
V
26 °C 10 km+ - 060° 060° 13 kt METAR URKK 122330Z 06007MPS CAVOK 26/06 Q1009 R05R/CLRD70 NOSIG RMK QFE753
02:00
V
26 °C 10 km+ - 060° 060° 11 kt METAR URKK 122300Z 06006MPS CAVOK 26/07 Q1009 R05R/CLRD70 NOSIG RMK QFE753
01:30
V
26 °C 10 km+ - 050° 050° 11 kt METAR URKK 122230Z 05006MPS CAVOK 26/07 Q1009 R05R/CLRD70 NOSIG RMK QFE753
01:00
V
26 °C 10 km+ - 050° 050° 13 kt METAR URKK 122200Z 05007MPS CAVOK 26/07 Q1009 R05R/CLRD70 NOSIG RMK QFE753
00:30
V
27 °C 10 km+ - 050° 050° 13 kt METAR URKK 122130Z 05007MPS CAVOK 27/08 Q1009 R05R/CLRD70 NOSIG RMK QFE754
00:00
V
28 °C 10 km+ - 050° 050° 13 kt METAR URKK 122100Z 05007MPS CAVOK 28/08 Q1009 R05R/CLRD70 NOSIG RMK QFE754

12 de julho de 2024

Hora Código Clima Temp. Visibilidade Tecto Vento METAR/SPECI
23:30
V
28 °C 10 km+ - 050° 050° 13 kt METAR URKK 122030Z 05007MPS CAVOK 28/09 Q1009 R05R/CLRD70 NOSIG RMK QFE754
23:00
V
29 °C 10 km+ - 050° 050° 13 kt METAR URKK 122000Z 05007MPS CAVOK 29/09 Q1009 R05R/CLRD70 NOSIG RMK QFE754
22:30
V
29 °C 10 km+ - 050° 050° 15 kt METAR URKK 121930Z 05008MPS CAVOK 29/10 Q1009 R05R/CLRD70 NOSIG RMK QFE753
22:00
V
30 °C 10 km+ - 050° 050° 17 kt METAR URKK 121900Z 05009MPS CAVOK 30/11 Q1009 R05R/CLRD70 NOSIG RMK QFE753
21:30
V
31 °C 10 km+ - 040° 040° 15 kt METAR URKK 121830Z 04008MPS CAVOK 31/12 Q1009 R05R/CLRD70 NOSIG RMK QFE753
21:00
V
31 °C 10 km+ - 040° 040° 13 kt METAR URKK 121800Z 04007MPS CAVOK 31/13 Q1008 R05R/CLRD70 NOSIG RMK QFE753
20:30
V
32 °C 10 km+ - 040° 040° 13 kt METAR URKK 121730Z 04007MPS CAVOK 32/13 Q1008 R05R/CLRD70 NOSIG RMK QFE753
20:00
V
32 °C 10 km+ - 040° 040° 13 kt METAR URKK 121700Z 04007MPS CAVOK 32/13 Q1008 R05R/CLRD70 NOSIG RMK QFE753
19:30
V
33 °C 10 km+ - 050° 050° 13 kt METAR URKK 121630Z 05007MPS CAVOK 33/12 Q1008 R05R/CLRD70 NOSIG RMK QFE753
19:00
V
34 °C 10 km+ - 050° 050° 15 kt METAR URKK 121600Z 05008MPS CAVOK 34/13 Q1008 R05R/CLRD70 NOSIG RMK QFE753
18:30
V
35 °C 10 km+ - 050° 050° 15 kt METAR URKK 121530Z 05008MPS CAVOK 35/13 Q1008 R05R/CLRD70 NOSIG RMK QFE753
18:00
V
35 °C 10 km+ - 070° 070° 11 kt METAR URKK 121500Z 07006MPS CAVOK 35/12 Q1008 R05R/CLRD70 NOSIG RMK QFE753
17:30
V
36 °C 10 km+ - 070° 070° 15 kt METAR URKK 121430Z 07008MPS CAVOK 36/12 Q1008 R05R/CLRD70 NOSIG RMK QFE753
17:00
V
36 °C 10 km+ - 060° 060° 13 kt METAR URKK 121400Z 06007MPS CAVOK 36/12 Q1008 R05R/CLRD70 NOSIG RMK QFE753
16:30
V
37 °C 10 km+ - 070° 070° 13 kt METAR URKK 121330Z 07007MPS CAVOK 37/12 Q1008 R05R/CLRD70 NOSIG RMK QFE753
16:00
V
37 °C 10 km+ - 060° 060° 13 kt METAR URKK 121300Z 06007MPS CAVOK 37/12 Q1009 R05R/CLRD70 NOSIG RMK QFE753
15:30
V
37 °C 10 km+ - 070° 070° 13 kt METAR URKK 121230Z 07007MPS 030V100 CAVOK 37/12 Q1009 R05R/CLRD70 NOSIG RMK QFE753
15:08
V
37 °C 10 km+ - 060° 060° 15 - 25 kt SPECI URKK 121208Z 06008G13MPS CAVOK 37/12 Q1009 R05R/CLRD70 NOSIG RMK QFE753/1005
15:00
V
37 °C 10 km+ - 070° 070° 13 kt METAR URKK 121200Z 07007MPS CAVOK 37/12 Q1009 R05R/CLRD70 NOSIG RMK QFE753
14:41
V
37 °C 10 km+ - 080° 080° 15 - 25 kt SPECI URKK 121141Z 08008G13MPS 050V110 CAVOK 37/12 Q1009 R05R/CLRD70 NOSIG RMK QFE753/1005
14:30
V
37 °C 10 km+ - 060° 060° 15 kt METAR URKK 121130Z 06008MPS 040V100 CAVOK 37/13 Q1009 R05R/CLRD70 NOSIG RMK QFE753
14:00
V
36 °C 10 km+ - 060° 060° 17 kt METAR URKK 121100Z 06009MPS CAVOK 36/12 Q1009 R05R/CLRD70 NOSIG RMK QFE754
13:30
V
36 °C 10 km+ - 070° 070° 17 kt METAR URKK 121030Z 07009MPS 030V090 CAVOK 36/13 Q1010 R05R/CLRD70 NOSIG RMK QFE754
13:27
V
36 °C 10 km+ - 070° 070° 15 - 25 kt SPECI URKK 121027Z 07008G13MPS 030V100 CAVOK 36/13 Q1009 R05R/CLRD70 NOSIG RMK QFE754/1005
13:00
V
36 °C 10 km+ - 080° 080° 11 kt METAR URKK 121000Z 08006MPS 040V110 CAVOK 36/15 Q1010 R05R/CLRD70 NOSIG RMK QFE754
12:30
V
35 °C 10 km+ - 070° 070° 13 kt METAR URKK 120930Z 07007MPS CAVOK 35/15 Q1010 R05R/CLRD70 NOSIG RMK QFE754
12:00
V
35 °C 10 km+ - 080° 080° 13 kt METAR URKK 120900Z 08007MPS 050V110 CAVOK 35/14 Q1010 R05R/CLRD70 NOSIG RMK QFE754
11:30
V
35 °C 10 km+ - 070° 070° 11 kt METAR URKK 120830Z 07006MPS 030V110 CAVOK 35/16 Q1010 R05R/CLRD70 NOSIG RMK QFE754
11:00
V
33 °C 10 km+ - 070° 070° 13 kt METAR URKK 120800Z 07007MPS CAVOK 33/15 Q1010 R05R/CLRD70 NOSIG RMK QFE754
10:30
V
32 °C 10 km+ - 070° 070° 13 kt METAR URKK 120730Z 07007MPS CAVOK 32/15 Q1010 R05R/CLRD70 TEMPO -TSRA SCT040CB RMK QFE754
10:00
V
32 °C 10 km+ - 070° 070° 11 kt METAR URKK 120700Z 07006MPS CAVOK 32/16 Q1010 R05R/CLRD70 TEMPO -TSRA SCT040CB RMK QFE755
09:30
V
31 °C 10 km+ - 070° 070° 9 kt METAR URKK 120630Z 07005MPS 040V100 CAVOK 31/15 Q1010 R05R/CLRD70 TEMPO -TSRA SCT040CB RMK QFE755
09:00
V
30 °C 10 km+ - 070° 070° 11 kt METAR URKK 120600Z 07006MPS 9999 FEW///CB 30/15 Q1010 R05R/CLRD70 TEMPO -TSRA SCT040CB RMK QFE755
Relatar uma mudança